Time;durP1;ratioP1;P1;durP2;ratioP2;P2;SDS_P1;SDS_P2;PMS_P1;PMS_P2;Temp;Humidity;BMP_temperature;BMP_pressure;BME280_temperature;BME280_humidity;BME280_pressure;Samples;Min_cycle;Max_cycle;Signal;HPM_P1;HPM_P2
2022/04/03 00:00:10;;;;;;;6.07;5.53;;;;;;;;;;2089964;28;20884;-63
2022/04/03 00:01:10;;;;;;;6.57;6.00;;;;;;;;;;2084348;28;20222;-62
2022/04/03 00:02:11;;;;;;;5.97;5.47;;;;;;;;;;2086033;28;20499;-63
2022/04/03 00:03:11;;;;;;;6.07;5.57;;;;;;;;;;2089615;28;20182;-61
2022/04/03 00:04:11;;;;;;;6.60;6.00;;;;;;;;;;2087668;28;20262;-64
2022/04/03 00:05:12;;;;;;;6.17;5.70;;;;;;;;;;2079307;28;20199;-63
2022/04/03 00:06:12;;;;;;;7.50;6.70;;;;;;;;;;2080098;28;20218;-63
2022/04/03 00:07:12;;;;;;;7.20;6.60;;;;;;;;;;2086012;28;20609;-62
2022/04/03 00:08:13;;;;;;;7.63;6.83;;;;;;;;;;2089649;28;20194;-64
2022/04/03 00:09:13;;;;;;;8.40;7.60;;;;;;;;;;2089604;28;20167;-64
2022/04/03 00:10:14;;;;;;;7.50;6.57;;;;;;;;;;2089149;28;20194;-64
2022/04/03 00:11:15;;;;;;;8.37;7.50;;;;;;;;;;2088613;28;20170;-64
2022/04/03 00:12:15;;;;;;;7.77;6.97;;;;;;;;;;2089464;28;20786;-65
2022/04/03 00:13:15;;;;;;;8.10;6.77;;;;;;;;;;2089481;28;20174;-63
2022/04/03 00:14:16;;;;;;;8.93;6.43;;;;;;;;;;2088688;28;20841;-63
2022/04/03 00:15:16;;;;;;;6.50;6.00;;;;;;;;;;2088672;28;20652;-65
2022/04/03 00:16:17;;;;;;;6.27;5.67;;;;;;;;;;2088627;28;20244;-64
2022/04/03 00:17:17;;;;;;;6.33;5.83;;;;;;;;;;2089399;28;20207;-63
2022/04/03 00:18:17;;;;;;;8.57;6.10;;;;;;;;;;2086869;28;20691;-63
2022/04/03 00:19:17;;;;;;;6.90;6.30;;;;;;;;;;2087928;28;20171;-63
2022/04/03 00:20:19;;;;;;;8.93;7.03;;;;;;;;;;2088888;28;20762;-63
2022/04/03 00:21:19;;;;;;;7.30;6.60;;;;;;;;;;2089025;28;20172;-61
2022/04/03 00:22:22;;;;;;;10.30;7.17;;;;;;;;;;2088443;28;20230;-63
2022/04/03 00:23:23;;;;;;;7.77;7.07;;;;;;;;;;2087647;28;20520;-64
2022/04/03 00:24:23;;;;;;;8.50;7.70;;;;;;;;;;2088433;28;20246;-64
2022/04/03 00:25:24;;;;;;;9.83;7.77;;;;;;;;;;2089627;28;20195;-64
2022/04/03 00:26:24;;;;;;;8.33;7.50;;;;;;;;;;2088859;28;20164;-64
2022/04/03 00:27:24;;;;;;;11.67;8.60;;;;;;;;;;2088534;28;20180;-63
2022/04/03 00:28:28;;;;;;;8.40;7.60;;;;;;;;;;2087363;28;20191;-62
2022/04/03 00:29:28;;;;;;;9.37;8.47;;;;;;;;;;2088074;28;20229;-63
2022/04/03 00:30:28;;;;;;;9.67;8.13;;;;;;;;;;2082418;28;20175;-65
2022/04/03 00:31:29;;;;;;;9.23;8.33;;;;;;;;;;2088997;28;20167;-63
2022/04/03 00:32:29;;;;;;;9.33;8.47;;;;;;;;;;2085913;28;20179;-64
2022/04/03 00:33:29;;;;;;;8.73;7.97;;;;;;;;;;2088346;28;20632;-61
2022/04/03 00:34:30;;;;;;;9.30;8.57;;;;;;;;;;2088220;28;20176;-61
2022/04/03 00:35:30;;;;;;;8.80;8.00;;;;;;;;;;2088456;28;20168;-63
2022/04/03 00:36:31;;;;;;;8.40;7.53;;;;;;;;;;2084220;28;20179;-64
2022/04/03 00:37:31;;;;;;;9.60;8.80;;;;;;;;;;2089439;28;20175;-64
2022/04/03 00:38:31;;;;;;;8.80;8.00;;;;;;;;;;2089030;28;20564;-64
2022/04/03 00:39:32;;;;;;;9.67;8.10;;;;;;;;;;2088202;28;20671;-62
2022/04/03 00:40:32;;;;;;;7.40;6.80;;;;;;;;;;2088487;28;20186;-62
2022/04/03 00:41:33;;;;;;;6.97;6.37;;;;;;;;;;2088847;28;20176;-64
2022/04/03 00:42:34;;;;;;;6.63;6.03;;;;;;;;;;2089520;28;20206;-63
2022/04/03 00:43:34;;;;;;;6.60;6.00;;;;;;;;;;2088755;28;20646;-62
2022/04/03 00:44:35;;;;;;;7.43;6.70;;;;;;;;;;2080197;28;20196;-64
2022/04/03 00:45:35;;;;;;;6.07;5.67;;;;;;;;;;2080755;28;20191;-60
2022/04/03 00:46:36;;;;;;;6.27;5.60;;;;;;;;;;2089646;28;20705;-61
2022/04/03 00:47:36;;;;;;;7.77;5.87;;;;;;;;;;2087915;28;20298;-61
2022/04/03 00:48:37;;;;;;;6.80;6.20;;;;;;;;;;2088472;28;20561;-61
2022/04/03 00:49:37;;;;;;;6.40;5.90;;;;;;;;;;2088750;28;20191;-63
2022/04/03 00:50:38;;;;;;;7.03;6.43;;;;;;;;;;2088811;28;20242;-63
2022/04/03 00:51:38;;;;;;;6.90;6.30;;;;;;;;;;2096822;28;20175;-63
2022/04/03 00:52:39;;;;;;;6.40;5.90;;;;;;;;;;2080818;28;20575;-61
2022/04/03 00:53:39;;;;;;;6.07;5.60;;;;;;;;;;2082993;28;20175;-62
2022/04/03 00:54:39;;;;;;;7.17;6.57;;;;;;;;;;2088542;28;20515;-61
2022/04/03 00:55:43;;;;;;;7.10;6.50;;;;;;;;;;2088941;28;20249;-62
2022/04/03 00:56:43;;;;;;;9.97;6.57;;;;;;;;;;2089454;28;20233;-64
2022/04/03 00:57:43;;;;;;;7.67;6.63;;;;;;;;;;2089389;28;20175;-63
2022/04/03 00:58:44;;;;;;;7.70;7.00;;;;;;;;;;2089220;28;20344;-64
2022/04/03 00:59:44;;;;;;;7.33;6.47;;;;;;;;;;2086464;28;20643;-62
2022/04/03 01:00:45;;;;;;;7.00;6.37;;;;;;;;;;2084737;28;20170;-62
2022/04/03 01:01:45;;;;;;;7.37;6.60;;;;;;;;;;2089892;28;20178;-63
2022/04/03 01:02:45;;;;;;;7.67;6.70;;;;;;;;;;2084079;28;20746;-64
2022/04/03 01:03:46;;;;;;;7.23;6.03;;;;;;;;;;2088618;28;20175;-63
2022/04/03 01:04:46;;;;;;;7.67;7.00;;;;;;;;;;2082865;28;20568;-62
2022/04/03 01:05:47;;;;;;;7.10;6.40;;;;;;;;;;2088526;28;20203;-63
2022/04/03 01:06:48;;;;;;;7.50;6.83;;;;;;;;;;2087513;28;20624;-64
2022/04/03 01:07:48;;;;;;;8.20;7.40;;;;;;;;;;2087997;28;20160;-59
2022/04/03 01:08:48;;;;;;;7.20;6.60;;;;;;;;;;2087473;28;20195;-63
2022/04/03 01:09:48;;;;;;;9.90;8.90;;;;;;;;;;2083146;28;20184;-64
2022/04/03 01:10:50;;;;;;;9.77;8.83;;;;;;;;;;2088280;28;20164;-64
2022/04/03 01:11:50;;;;;;;10.37;9.47;;;;;;;;;;2087213;28;20176;-62
2022/04/03 01:12:51;;;;;;;11.07;10.00;;;;;;;;;;2089547;28;20246;-65
2022/04/03 01:13:51;;;;;;;11.20;10.20;;;;;;;;;;2088573;28;20241;-61
2022/04/03 01:14:52;;;;;;;11.80;10.80;;;;;;;;;;2087706;28;20655;-64
2022/04/03 01:15:59;;;;;;;8.53;7.73;;;;;;;;;;2087926;28;20178;-64
2022/04/03 01:16:59;;;;;;;8.43;7.30;;;;;;;;;;2084567;28;20160;-59
2022/04/03 01:17:59;;;;;;;7.53;6.77;;;;;;;;;;2088026;28;20416;-61
2022/04/03 01:19:00;;;;;;;7.27;6.43;;;;;;;;;;2088504;28;20183;-62
2022/04/03 01:20:01;;;;;;;6.90;6.30;;;;;;;;;;2088099;28;20644;-62
2022/04/03 01:21:01;;;;;;;7.70;7.10;;;;;;;;;;2085536;28;20175;-63
2022/04/03 01:22:01;;;;;;;8.03;7.23;;;;;;;;;;2088821;28;20202;-63
2022/04/03 01:23:01;;;;;;;6.93;6.23;;;;;;;;;;2088455;28;20167;-61
2022/04/03 01:24:02;;;;;;;8.40;6.83;;;;;;;;;;2085989;28;20183;-62
2022/04/03 01:25:02;;;;;;;7.57;6.37;;;;;;;;;;2089374;28;20179;-63
2022/04/03 01:26:03;;;;;;;7.43;6.77;;;;;;;;;;2089365;28;20290;-61
2022/04/03 01:27:03;;;;;;;7.10;6.40;;;;;;;;;;2087990;28;20236;-63
2022/04/03 01:28:04;;;;;;;7.00;6.00;;;;;;;;;;2089148;28;20203;-64
2022/04/03 01:29:04;;;;;;;8.07;5.47;;;;;;;;;;2089049;28;20183;-62
2022/04/03 01:30:05;;;;;;;7.27;6.30;;;;;;;;;;2089238;28;20174;-62
2022/04/03 01:31:05;;;;;;;6.67;5.97;;;;;;;;;;2084811;28;20175;-62
2022/04/03 01:32:07;;;;;;;6.30;5.67;;;;;;;;;;2089842;28;20677;-63
2022/04/03 01:33:08;;;;;;;6.27;5.73;;;;;;;;;;2089196;28;20183;-62
2022/04/03 01:34:08;;;;;;;6.43;5.83;;;;;;;;;;2088995;28;20440;-61
2022/04/03 01:35:09;;;;;;;6.73;6.23;;;;;;;;;;2080666;28;20179;-62
2022/04/03 01:36:09;;;;;;;7.90;6.27;;;;;;;;;;2084713;28;20188;-63
2022/04/03 01:37:09;;;;;;;8.50;5.93;;;;;;;;;;2087225;28;20247;-64
2022/04/03 01:38:09;;;;;;;7.20;5.57;;;;;;;;;;2087203;28;20278;-64
2022/04/03 01:39:10;;;;;;;6.13;5.63;;;;;;;;;;2084667;28;20290;-65
2022/04/03 01:40:12;;;;;;;6.37;5.77;;;;;;;;;;2086817;28;20183;-65
2022/04/03 01:41:13;;;;;;;6.07;5.60;;;;;;;;;;2086862;28;20179;-63
2022/04/03 01:42:13;;;;;;;6.50;5.80;;;;;;;;;;2086137;28;20179;-65
2022/04/03 01:43:13;;;;;;;6.20;5.70;;;;;;;;;;2085874;28;20192;-63
2022/04/03 01:44:14;;;;;;;6.60;5.50;;;;;;;;;;2086104;28;20175;-60
2022/04/03 01:45:14;;;;;;;7.77;5.57;;;;;;;;;;2089056;28;20206;-62
2022/04/03 01:46:14;;;;;;;6.60;5.80;;;;;;;;;;2089063;28;20164;-63
2022/04/03 01:47:15;;;;;;;8.60;5.90;;;;;;;;;;2086960;28;20179;-64
2022/04/03 01:48:15;;;;;;;6.30;5.70;;;;;;;;;;2088817;28;20207;-64
2022/04/03 01:49:15;;;;;;;6.67;6.07;;;;;;;;;;2085100;28;20176;-64
2022/04/03 01:50:16;;;;;;;6.60;5.73;;;;;;;;;;2088760;28;20180;-64
2022/04/03 01:51:16;;;;;;;5.53;5.13;;;;;;;;;;2080323;28;20206;-65
2022/04/03 01:52:17;;;;;;;6.70;5.93;;;;;;;;;;2090028;28;20294;-64
2022/04/03 01:53:17;;;;;;;8.27;5.80;;;;;;;;;;2090567;28;20182;-64
2022/04/03 01:54:17;;;;;;;6.43;5.87;;;;;;;;;;2089293;28;20306;-65
2022/04/03 01:55:18;;;;;;;5.80;5.30;;;;;;;;;;2090552;28;20172;-66
2022/04/03 01:56:19;;;;;;;6.53;5.93;;;;;;;;;;2090604;28;20176;-63
2022/04/03 01:57:19;;;;;;;6.37;5.67;;;;;;;;;;2090710;28;20188;-65
2022/04/03 01:58:20;;;;;;;6.20;5.70;;;;;;;;;;2084950;28;20302;-63
2022/04/03 01:59:21;;;;;;;6.00;5.50;;;;;;;;;;2088422;28;20178;-64
2022/04/03 02:00:22;;;;;;;6.30;5.80;;;;;;;;;;2089869;28;20200;-64
2022/04/03 02:01:22;;;;;;;6.87;6.07;;;;;;;;;;2090549;28;20180;-63
2022/04/03 02:02:22;;;;;;;6.80;6.20;;;;;;;;;;2090334;28;20262;-63
2022/04/03 02:03:23;;;;;;;6.43;5.47;;;;;;;;;;2090371;28;20160;-63
2022/04/03 02:04:23;;;;;;;5.80;5.30;;;;;;;;;;2097705;28;20175;-63
2022/04/03 02:05:24;;;;;;;6.23;5.60;;;;;;;;;;2091706;28;20240;-69
2022/04/03 02:06:24;;;;;;;5.67;5.17;;;;;;;;;;2096580;28;20203;-64
2022/04/03 02:07:25;;;;;;;10.40;6.10;;;;;;;;;;2090539;28;20559;-63
2022/04/03 02:08:25;;;;;;;6.53;5.93;;;;;;;;;;2090067;28;20192;-64
2022/04/03 02:09:26;;;;;;;6.10;5.33;;;;;;;;;;2090460;28;20168;-64
2022/04/03 02:10:26;;;;;;;6.47;5.77;;;;;;;;;;2089004;28;20618;-64
2022/04/03 02:11:26;;;;;;;5.90;5.40;;;;;;;;;;2088954;28;20192;-65
2022/04/03 02:12:26;;;;;;;5.80;5.40;;;;;;;;;;2090179;28;20390;-64
2022/04/03 02:13:27;;;;;;;9.17;5.60;;;;;;;;;;2089439;28;20160;-63
2022/04/03 02:14:27;;;;;;;6.70;5.10;;;;;;;;;;2088669;28;20199;-63
2022/04/03 02:15:29;;;;;;;7.53;5.93;;;;;;;;;;2089242;28;20179;-64
2022/04/03 02:16:29;;;;;;;5.63;5.20;;;;;;;;;;2070137;28;20170;-64
2022/04/03 02:17:29;;;;;;;7.57;6.00;;;;;;;;;;2072344;28;20260;-64
2022/04/03 02:18:29;;;;;;;6.70;5.70;;;;;;;;;;2088845;28;20193;-68
2022/04/03 02:19:30;;;;;;;6.97;5.50;;;;;;;;;;2086178;28;20187;-64
2022/04/03 02:20:31;;;;;;;6.00;5.50;;;;;;;;;;2088242;28;20175;-64
2022/04/03 02:21:31;;;;;;;6.33;5.70;;;;;;;;;;2090090;28;20172;-65
2022/04/03 02:22:32;;;;;;;6.93;6.27;;;;;;;;;;2090143;28;20194;-64
2022/04/03 02:23:32;;;;;;;6.30;5.70;;;;;;;;;;2090030;28;20750;-62
2022/04/03 02:24:33;;;;;;;6.03;5.40;;;;;;;;;;2089710;28;20566;-64
2022/04/03 02:25:33;;;;;;;5.90;5.40;;;;;;;;;;2087612;28;20184;-64
2022/04/03 02:26:33;;;;;;;6.23;5.63;;;;;;;;;;2090050;28;20261;-64
2022/04/03 02:27:33;;;;;;;5.50;5.00;;;;;;;;;;2089773;28;20608;-64
2022/04/03 02:29:42;;;;;;;5.83;5.20;;;;;;;;;;2052608;28;20264;-56
2022/04/03 02:30:43;;;;;;;6.00;5.40;;;;;;;;;;2064687;28;20228;-50
2022/04/03 02:31:43;;;;;;;6.20;5.60;;;;;;;;;;2065264;28;20222;-51
2022/04/03 02:32:43;;;;;;;7.57;6.00;;;;;;;;;;2065515;28;20324;-51
2022/04/03 02:33:44;;;;;;;6.93;6.43;;;;;;;;;;2065062;28;20174;-54
2022/04/03 02:34:44;;;;;;;7.07;6.47;;;;;;;;;;2065517;28;20575;-51
2022/04/03 02:35:44;;;;;;;7.13;6.37;;;;;;;;;;2065548;28;20260;-51
2022/04/03 02:36:45;;;;;;;6.40;5.80;;;;;;;;;;2065021;28;20208;-53
2022/04/03 02:37:45;;;;;;;6.87;6.27;;;;;;;;;;2065773;28;20177;-51
2022/04/03 02:38:46;;;;;;;6.97;6.10;;;;;;;;;;2068968;28;20317;-51
2022/04/03 02:39:46;;;;;;;6.67;5.97;;;;;;;;;;2070419;28;20212;-51
2022/04/03 02:40:46;;;;;;;6.90;5.60;;;;;;;;;;2069479;28;20172;-51
2022/04/03 02:41:47;;;;;;;7.80;5.80;;;;;;;;;;2070011;28;20227;-50
2022/04/03 02:42:47;;;;;;;5.73;5.30;;;;;;;;;;2069412;28;20196;-50
2022/04/03 02:43:48;;;;;;;6.43;5.80;;;;;;;;;;2070180;28;20174;-50
2022/04/03 02:44:48;;;;;;;7.77;5.70;;;;;;;;;;2069294;28;20197;-51
2022/04/03 02:45:48;;;;;;;5.90;5.40;;;;;;;;;;2068996;28;20264;-51
2022/04/03 02:46:48;;;;;;;7.60;5.63;;;;;;;;;;2067325;28;20186;-52
2022/04/03 02:47:50;;;;;;;6.13;5.47;;;;;;;;;;2068019;28;20158;-51
2022/04/03 02:48:50;;;;;;;5.83;5.00;;;;;;;;;;2068706;28;20172;-51
2022/04/03 02:49:51;;;;;;;6.10;5.50;;;;;;;;;;2068863;28;20670;-56
2022/04/03 02:50:51;;;;;;;6.57;5.90;;;;;;;;;;2065217;28;20176;-52
2022/04/03 02:51:52;;;;;;;5.67;5.27;;;;;;;;;;2065797;28;20174;-52
2022/04/03 02:52:54;;;;;;;7.63;5.40;;;;;;;;;;2065205;28;20170;-52
2022/04/03 02:53:54;;;;;;;6.80;5.70;;;;;;;;;;2065064;28;20246;-51
2022/04/03 02:54:55;;;;;;;6.67;5.20;;;;;;;;;;2064599;28;20170;-51
2022/04/03 02:55:55;;;;;;;6.60;6.00;;;;;;;;;;2064959;28;20181;-51
2022/04/03 02:56:55;;;;;;;7.90;5.97;;;;;;;;;;2065772;28;20201;-54
2022/04/03 02:57:56;;;;;;;6.20;5.07;;;;;;;;;;2065558;28;20174;-51
2022/04/03 02:58:56;;;;;;;10.90;5.47;;;;;;;;;;2065496;28;20212;-51
2022/04/03 02:59:56;;;;;;;10.20;5.80;;;;;;;;;;2056712;28;20186;-54
2022/04/03 03:00:57;;;;;;;5.70;5.20;;;;;;;;;;2056210;28;20820;-51
2022/04/03 03:01:57;;;;;;;6.80;6.13;;;;;;;;;;2056596;28;20270;-54
2022/04/03 03:02:57;;;;;;;9.60;5.73;;;;;;;;;;2057520;28;20182;-51
2022/04/03 03:03:58;;;;;;;6.17;5.67;;;;;;;;;;2064855;28;20650;-52
2022/04/03 03:04:58;;;;;;;6.50;5.80;;;;;;;;;;2065350;28;20547;-54
2022/04/03 03:05:59;;;;;;;6.90;6.03;;;;;;;;;;2065332;28;20236;-51
2022/04/03 03:06:59;;;;;;;6.87;5.77;;;;;;;;;;2065250;28;20189;-51
2022/04/03 03:07:59;;;;;;;6.13;5.63;;;;;;;;;;2065881;28;20611;-53
2022/04/03 03:09:00;;;;;;;7.27;5.63;;;;;;;;;;2065339;28;20190;-52
2022/04/03 03:10:00;;;;;;;7.47;5.83;;;;;;;;;;2065397;28;20185;-52
2022/04/03 03:11:00;;;;;;;6.87;5.93;;;;;;;;;;2063433;28;20178;-51
2022/04/03 03:12:02;;;;;;;6.77;6.17;;;;;;;;;;2063637;28;20161;-53
2022/04/03 03:13:03;;;;;;;7.40;5.97;;;;;;;;;;2070879;28;20422;-51
2022/04/03 03:14:03;;;;;;;6.00;5.43;;;;;;;;;;2068996;28;20768;-54
2022/04/03 03:15:04;;;;;;;6.57;5.90;;;;;;;;;;2069331;28;20173;-53
2022/04/03 03:16:05;;;;;;;6.60;5.77;;;;;;;;;;2073567;28;20418;-50
2022/04/03 03:17:05;;;;;;;7.70;6.10;;;;;;;;;;2071283;28;20180;-53
2022/04/03 03:18:05;;;;;;;8.20;5.60;;;;;;;;;;2069756;28;20667;-54
2022/04/03 03:19:06;;;;;;;8.70;5.70;;;;;;;;;;2064448;28;20197;-53
2022/04/03 03:20:06;;;;;;;7.30;6.33;;;;;;;;;;2064544;28;20182;-52
2022/04/03 03:21:06;;;;;;;6.97;6.33;;;;;;;;;;2056446;28;20737;-54
2022/04/03 03:22:07;;;;;;;8.47;5.90;;;;;;;;;;2053174;28;20189;-54
2022/04/03 03:23:07;;;;;;;6.57;5.93;;;;;;;;;;2064572;28;20190;-55
2022/04/03 03:24:09;;;;;;;7.03;6.33;;;;;;;;;;2060177;28;20233;-53
2022/04/03 03:25:09;;;;;;;6.43;5.83;;;;;;;;;;2064890;28;20184;-53
2022/04/03 03:26:09;;;;;;;7.37;6.60;;;;;;;;;;2059359;28;20531;-52
2022/04/03 03:27:10;;;;;;;7.13;6.53;;;;;;;;;;2065799;28;20265;-54
2022/04/03 03:28:10;;;;;;;7.50;5.87;;;;;;;;;;2065467;28;20909;-54
2022/04/03 03:29:10;;;;;;;6.80;5.97;;;;;;;;;;2059739;28;20201;-56
2022/04/03 03:30:11;;;;;;;6.07;5.57;;;;;;;;;;2061753;28;20216;-53
2022/04/03 03:31:11;;;;;;;6.73;6.20;;;;;;;;;;2068278;28;20248;-57
2022/04/03 03:32:12;;;;;;;6.83;5.57;;;;;;;;;;2070294;28;20711;-54
2022/04/03 03:33:12;;;;;;;6.40;5.80;;;;;;;;;;2064950;28;20595;-52
2022/04/03 03:34:12;;;;;;;8.07;6.77;;;;;;;;;;2065099;28;20165;-52
2022/04/03 03:35:13;;;;;;;6.63;5.97;;;;;;;;;;2065714;28;20178;-53
2022/04/03 03:36:13;;;;;;;9.97;5.83;;;;;;;;;;2065593;28;20178;-52
2022/04/03 03:37:13;;;;;;;8.00;6.80;;;;;;;;;;2064597;28;20200;-56
2022/04/03 03:38:15;;;;;;;7.67;7.07;;;;;;;;;;2065220;28;20581;-50
2022/04/03 03:39:16;;;;;;;6.63;6.13;;;;;;;;;;2065049;28;20469;-55
2022/04/03 03:40:17;;;;;;;7.50;6.03;;;;;;;;;;2064831;28;20658;-52
2022/04/03 03:41:17;;;;;;;8.47;6.53;;;;;;;;;;2064958;28;20458;-52
2022/04/03 03:42:17;;;;;;;6.93;5.67;;;;;;;;;;2065220;28;20178;-53
2022/04/03 03:43:17;;;;;;;6.63;5.90;;;;;;;;;;2065832;28;20165;-52
2022/04/03 03:44:18;;;;;;;7.43;6.23;;;;;;;;;;2065272;28;20224;-54
2022/04/03 03:45:18;;;;;;;6.07;5.57;;;;;;;;;;2065545;28;20189;-54
2022/04/03 03:46:19;;;;;;;6.60;5.73;;;;;;;;;;2067229;28;20181;-53
2022/04/03 03:47:19;;;;;;;6.60;6.10;;;;;;;;;;2069723;28;20177;-53
2022/04/03 03:48:20;;;;;;;6.87;6.10;;;;;;;;;;2066781;28;20208;-51
2022/04/03 03:49:21;;;;;;;6.73;6.20;;;;;;;;;;2068118;28;20609;-51
2022/04/03 03:50:21;;;;;;;7.10;6.40;;;;;;;;;;2066826;28;20166;-54
2022/04/03 03:51:21;;;;;;;7.37;6.67;;;;;;;;;;2065250;28;20856;-51
2022/04/03 03:52:21;;;;;;;6.83;6.13;;;;;;;;;;2065011;28;20180;-55
2022/04/03 03:53:22;;;;;;;6.80;6.00;;;;;;;;;;2071188;28;20184;-51
2022/04/03 03:54:22;;;;;;;5.83;5.30;;;;;;;;;;2065470;28;20196;-51
2022/04/03 03:55:23;;;;;;;7.47;5.67;;;;;;;;;;2065128;28;20184;-56
2022/04/03 03:56:23;;;;;;;6.20;5.63;;;;;;;;;;2064724;28;20202;-52
2022/04/03 03:57:24;;;;;;;6.47;5.87;;;;;;;;;;2065208;28;20177;-54
2022/04/03 03:58:24;;;;;;;7.27;5.77;;;;;;;;;;2065515;28;20562;-51
2022/04/03 03:59:25;;;;;;;6.40;5.67;;;;;;;;;;2065573;28;20357;-53
2022/04/03 04:00:25;;;;;;;8.93;5.40;;;;;;;;;;2057270;28;20294;-51
2022/04/03 04:01:27;;;;;;;7.17;5.17;;;;;;;;;;2048183;29;20171;-54
2022/04/03 04:02:27;;;;;;;6.60;5.83;;;;;;;;;;2057158;28;20691;-55
2022/04/03 04:03:27;;;;;;;6.30;5.70;;;;;;;;;;2065436;28;20403;-53
2022/04/03 04:04:29;;;;;;;6.23;5.03;;;;;;;;;;2065442;28;20602;-53
2022/04/03 04:05:29;;;;;;;5.97;5.40;;;;;;;;;;2065007;28;20260;-54
2022/04/03 04:06:29;;;;;;;6.60;6.00;;;;;;;;;;2065443;28;20415;-52
2022/04/03 04:07:43;;;;;;;5.83;5.33;;;;;;;;;;2065635;28;20808;-52
2022/04/03 04:08:43;;;;;;;6.43;5.83;;;;;;;;;;2057066;28;20180;-54
2022/04/03 04:09:43;;;;;;;7.33;4.97;;;;;;;;;;2056710;28;20789;-52
2022/04/03 04:10:44;;;;;;;11.53;5.47;;;;;;;;;;2065350;28;20642;-53
2022/04/03 04:11:44;;;;;;;6.10;5.50;;;;;;;;;;2065262;28;20188;-54
2022/04/03 04:12:45;;;;;;;6.47;5.70;;;;;;;;;;2065685;28;20213;-54
2022/04/03 04:13:45;;;;;;;5.73;5.27;;;;;;;;;;2065348;28;20169;-52
2022/04/03 04:14:45;;;;;;;6.27;5.67;;;;;;;;;;2065014;28;20188;-52
2022/04/03 04:15:46;;;;;;;6.90;5.83;;;;;;;;;;2065420;28;20228;-52
2022/04/03 04:16:46;;;;;;;5.80;5.20;;;;;;;;;;2065518;28;20212;-56
2022/04/03 04:17:47;;;;;;;8.07;5.60;;;;;;;;;;2065539;28;20227;-52
2022/04/03 04:18:47;;;;;;;5.93;5.43;;;;;;;;;;2056970;28;20178;-51
2022/04/03 04:19:48;;;;;;;5.93;5.33;;;;;;;;;;2055981;28;20875;-54
2022/04/03 04:20:50;;;;;;;5.93;5.40;;;;;;;;;;2064825;28;20177;-51
2022/04/03 04:21:51;;;;;;;7.93;5.83;;;;;;;;;;2064854;28;20431;-51
2022/04/03 04:22:54;;;;;;;5.40;4.90;;;;;;;;;;2064712;28;20407;-51
2022/04/03 04:23:55;;;;;;;6.00;5.50;;;;;;;;;;2064465;28;20181;-53
2022/04/03 04:24:55;;;;;;;6.83;6.23;;;;;;;;;;2057636;28;20426;-52
2022/04/03 04:25:55;;;;;;;5.73;5.23;;;;;;;;;;2058335;28;20252;-54
2022/04/03 04:26:56;;;;;;;6.13;5.63;;;;;;;;;;2063991;28;20820;-51
2022/04/03 04:27:56;;;;;;;6.20;5.70;;;;;;;;;;2059763;28;20202;-55
2022/04/03 04:28:56;;;;;;;6.33;5.73;;;;;;;;;;2064361;28;20208;-52
2022/04/03 04:29:57;;;;;;;5.60;5.20;;;;;;;;;;2064424;28;20177;-53
2022/04/03 04:30:57;;;;;;;6.30;5.80;;;;;;;;;;2064527;28;20182;-54
2022/04/03 04:31:57;;;;;;;7.10;5.50;;;;;;;;;;2064697;28;20173;-54
2022/04/03 04:32:58;;;;;;;5.57;5.17;;;;;;;;;;2064534;28;20223;-54
2022/04/03 04:33:58;;;;;;;6.83;5.60;;;;;;;;;;2064960;28;20181;-54
2022/04/03 04:34:58;;;;;;;6.83;5.83;;;;;;;;;;2064800;28;20272;-52
2022/04/03 04:35:59;;;;;;;6.43;5.83;;;;;;;;;;2064797;28;20653;-56
2022/04/03 04:36:59;;;;;;;6.47;5.97;;;;;;;;;;2064235;28;20169;-53
2022/04/03 04:37:59;;;;;;;6.87;6.03;;;;;;;;;;2060401;28;20188;-55
2022/04/03 04:39:00;;;;;;;6.03;5.43;;;;;;;;;;2064707;28;20210;-54
2022/04/03 04:40:00;;;;;;;7.03;6.23;;;;;;;;;;2064272;28;20215;-53
2022/04/03 04:41:01;;;;;;;6.40;5.80;;;;;;;;;;2064755;28;20189;-51
2022/04/03 04:42:01;;;;;;;6.33;5.73;;;;;;;;;;2057376;28;20234;-52
2022/04/03 04:43:01;;;;;;;6.20;5.70;;;;;;;;;;2056191;28;20221;-54
2022/04/03 04:44:01;;;;;;;7.67;5.80;;;;;;;;;;2063796;28;20618;-54
2022/04/03 04:45:02;;;;;;;7.40;6.73;;;;;;;;;;2065145;28;20178;-52
2022/04/03 04:46:03;;;;;;;6.43;5.93;;;;;;;;;;2058116;28;20209;-53
2022/04/03 04:47:03;;;;;;;6.27;5.70;;;;;;;;;;2055258;28;20999;-53
2022/04/03 04:48:04;;;;;;;6.90;5.57;;;;;;;;;;2064354;28;20181;-53
2022/04/03 04:49:04;;;;;;;5.93;5.27;;;;;;;;;;2065134;28;20224;-55
2022/04/03 04:50:08;;;;;;;6.47;5.70;;;;;;;;;;2064104;28;20170;-52
2022/04/03 04:51:09;;;;;;;7.40;5.60;;;;;;;;;;2065188;28;20213;-52
2022/04/03 04:52:09;;;;;;;6.30;5.80;;;;;;;;;;2064862;28;20414;-52
2022/04/03 04:53:10;;;;;;;5.07;4.67;;;;;;;;;;2064533;28;20177;-54
2022/04/03 04:54:10;;;;;;;6.23;5.37;;;;;;;;;;2055449;28;20762;-51
2022/04/03 04:55:11;;;;;;;6.30;5.47;;;;;;;;;;2055603;28;20197;-54
2022/04/03 04:56:12;;;;;;;6.07;5.57;;;;;;;;;;2064765;28;20177;-54
2022/04/03 04:57:12;;;;;;;5.67;5.17;;;;;;;;;;2064203;28;20181;-52
2022/04/03 04:58:12;;;;;;;5.70;5.20;;;;;;;;;;2064329;28;20435;-55
2022/04/03 04:59:13;;;;;;;8.07;6.57;;;;;;;;;;2055566;28;20296;-52
2022/04/03 05:00:13;;;;;;;6.33;5.70;;;;;;;;;;2051418;28;20644;-53
2022/04/03 05:01:15;;;;;;;6.23;5.47;;;;;;;;;;2061381;28;20181;-52
2022/04/03 05:02:16;;;;;;;6.97;6.33;;;;;;;;;;2064975;28;20181;-53
2022/04/03 05:03:16;;;;;;;5.83;5.23;;;;;;;;;;2064287;28;20522;-53
2022/04/03 05:04:16;;;;;;;6.23;5.40;;;;;;;;;;2064173;28;20193;-51
2022/04/03 05:05:18;;;;;;;7.20;5.83;;;;;;;;;;2064294;28;20208;-53
2022/04/03 05:06:18;;;;;;;6.20;5.27;;;;;;;;;;2064730;28;20205;-51
2022/04/03 05:07:18;;;;;;;7.13;5.77;;;;;;;;;;2064402;28;20797;-53
2022/04/03 05:08:19;;;;;;;6.80;5.63;;;;;;;;;;2064074;28;20256;-52
2022/04/03 05:09:19;;;;;;;7.83;5.40;;;;;;;;;;2064517;28;20196;-53
2022/04/03 05:10:20;;;;;;;7.30;5.40;;;;;;;;;;2063979;28;20169;-55
2022/04/03 05:11:21;;;;;;;5.43;4.80;;;;;;;;;;2063920;28;20256;-51
2022/04/03 05:12:21;;;;;;;5.93;5.17;;;;;;;;;;2063122;28;20188;-54
2022/04/03 05:13:25;;;;;;;5.63;5.13;;;;;;;;;;2064593;28;20173;-57
2022/04/03 05:14:25;;;;;;;4.80;4.50;;;;;;;;;;2063902;28;20173;-53
2022/04/03 05:15:28;;;;;;;6.43;5.17;;;;;;;;;;2064324;28;20419;-51
2022/04/03 05:16:28;;;;;;;5.70;5.20;;;;;;;;;;2055165;28;20177;-52
2022/04/03 05:17:29;;;;;;;5.57;5.07;;;;;;;;;;2056534;28;20883;-52
2022/04/03 05:18:29;;;;;;;6.20;5.37;;;;;;;;;;2064851;28;20181;-53
2022/04/03 05:19:29;;;;;;;6.47;5.27;;;;;;;;;;2064571;28;20769;-53
2022/04/03 05:20:30;;;;;;;6.10;5.20;;;;;;;;;;2064637;28;20184;-52
2022/04/03 05:21:30;;;;;;;5.87;5.30;;;;;;;;;;2064968;28;20231;-53
2022/04/03 05:22:30;;;;;;;6.67;4.93;;;;;;;;;;2064217;28;20217;-54
2022/04/03 05:23:31;;;;;;;5.40;4.90;;;;;;;;;;2064168;28;20192;-55
2022/04/03 05:24:31;;;;;;;5.60;5.10;;;;;;;;;;2064553;28;20310;-53
2022/04/03 05:25:31;;;;;;;6.23;5.30;;;;;;;;;;2055651;28;20189;-54
2022/04/03 05:26:32;;;;;;;5.57;5.07;;;;;;;;;;2057646;28;20209;-53
2022/04/03 05:27:32;;;;;;;5.17;4.67;;;;;;;;;;2067274;28;20177;-55
2022/04/03 05:28:32;;;;;;;6.87;4.83;;;;;;;;;;2066019;28;20201;-51
2022/04/03 05:29:35;;;;;;;7.20;5.83;;;;;;;;;;2067385;28;20189;-51
2022/04/03 05:30:36;;;;;;;6.67;4.93;;;;;;;;;;2058294;28;20229;-54
2022/04/03 05:31:36;;;;;;;5.30;4.80;;;;;;;;;;2063258;28;20486;-52
2022/04/03 05:32:36;;;;;;;5.17;4.73;;;;;;;;;;2057362;28;20259;-53
2022/04/03 05:33:37;;;;;;;5.90;5.40;;;;;;;;;;2066402;28;20178;-51
2022/04/03 05:34:38;;;;;;;5.97;5.37;;;;;;;;;;2065135;28;20181;-53
2022/04/03 05:35:38;;;;;;;6.40;5.73;;;;;;;;;;2070768;28;20177;-52
2022/04/03 05:36:39;;;;;;;8.50;5.07;;;;;;;;;;2066216;28;20821;-53
2022/04/03 05:37:40;;;;;;;7.10;5.43;;;;;;;;;;2066755;28;20193;-53
2022/04/03 05:38:40;;;;;;;6.00;5.33;;;;;;;;;;2067988;28;20421;-56
2022/04/03 05:39:40;;;;;;;6.53;5.10;;;;;;;;;;2067314;28;20185;-51
2022/04/03 05:40:41;;;;;;;8.40;5.03;;;;;;;;;;2067099;28;20696;-53
2022/04/03 05:41:41;;;;;;;5.73;5.23;;;;;;;;;;2066890;28;20181;-53
2022/04/03 05:42:41;;;;;;;5.40;4.87;;;;;;;;;;2066128;28;20232;-53
2022/04/03 05:43:42;;;;;;;7.57;5.23;;;;;;;;;;2066216;28;20255;-53
2022/04/03 05:44:42;;;;;;;6.17;5.43;;;;;;;;;;2066030;28;20260;-50
2022/04/03 05:45:42;;;;;;;6.27;5.10;;;;;;;;;;2067638;28;20201;-52
2022/04/03 05:46:42;;;;;;;5.13;4.70;;;;;;;;;;2065169;28;20245;-52
2022/04/03 05:47:43;;;;;;;7.43;5.30;;;;;;;;;;2066220;28;20169;-54
2022/04/03 05:48:43;;;;;;;7.97;5.10;;;;;;;;;;2065722;28;20631;-52
2022/04/03 05:49:43;;;;;;;7.60;5.30;;;;;;;;;;2066110;28;20174;-51
2022/04/03 05:50:44;;;;;;;5.93;5.30;;;;;;;;;;2066172;28;20179;-53
2022/04/03 05:51:45;;;;;;;5.57;5.07;;;;;;;;;;2069964;28;20598;-53
2022/04/03 05:52:47;;;;;;;5.80;4.93;;;;;;;;;;2066235;28;20201;-52
2022/04/03 05:53:48;;;;;;;5.63;5.10;;;;;;;;;;2062726;28;20657;-54
2022/04/03 05:54:48;;;;;;;5.80;5.30;;;;;;;;;;2065841;28;20411;-52
2022/04/03 05:55:48;;;;;;;5.80;5.30;;;;;;;;;;2066238;28;20176;-51
2022/04/03 05:56:49;;;;;;;5.23;4.73;;;;;;;;;;2066505;28;20204;-52
2022/04/03 05:57:50;;;;;;;6.17;5.40;;;;;;;;;;2067045;28;20178;-53
2022/04/03 05:58:50;;;;;;;6.60;5.20;;;;;;;;;;2066726;28;20177;-53
2022/04/03 05:59:51;;;;;;;6.30;4.90;;;;;;;;;;2067185;28;20447;-53
2022/04/03 06:00:51;;;;;;;5.50;5.00;;;;;;;;;;2067849;28;20202;-52
2022/04/03 06:01:51;;;;;;;5.43;5.00;;;;;;;;;;2067340;28;20182;-52
2022/04/03 06:02:53;;;;;;;8.13;5.80;;;;;;;;;;2067322;28;20259;-52
2022/04/03 06:03:54;;;;;;;5.63;5.10;;;;;;;;;;2058738;28;20667;-52